Time;durP1;ratioP1;P1;durP2;ratioP2;P2;SDS_P1;SDS_P2;PMS_P1;PMS_P2;Temp;Humidity;BMP_temperature;BMP_pressure;BME280_temperature;BME280_humidity;BME280_pressure;Samples;Min_cycle;Max_cycle;Signal;HPM_P1;HPM_P2
2021/12/01 00:04:40;;;;;;;12.57;3.47;;;;;;;9.85;100.00;99974.28;10546366;28;20459;-72
2021/12/01 00:09:41;;;;;;;17.20;4.25;;;;;;;9.90;100.00;99969.06;10546912;28;20039;-71
2021/12/01 00:14:41;;;;;;;10.80;2.85;;;;;;;9.90;100.00;99947.44;10546550;28;20035;-71
2021/12/01 00:19:42;;;;;;;12.85;5.13;;;;;;;9.96;100.00;99913.28;10546395;28;20058;-71
2021/12/01 00:24:42;;;;;;;11.13;4.03;;;;;;;9.91;100.00;99900.41;10545736;28;20078;-71
2021/12/01 00:29:42;;;;;;;11.82;4.05;;;;;;;9.93;100.00;99908.31;10546065;28;20545;-70
2021/12/01 00:34:43;;;;;;;8.63;3.25;;;;;;;9.90;100.00;99896.06;10545200;28;20032;-72
2021/12/01 00:39:44;;;;;;;9.50;2.03;;;;;;;9.89;100.00;99875.47;10545514;28;20032;-71
2021/12/01 00:44:47;;;;;;;14.20;3.40;;;;;;;9.87;100.00;99864.03;10528342;28;20084;-70
2021/12/01 00:49:47;;;;;;;12.80;2.95;;;;;;;9.88;100.00;99871.09;10543965;28;20036;-71
2021/12/01 00:54:48;;;;;;;7.40;2.35;;;;;;;9.83;100.00;99870.94;10545258;28;20044;-72
2021/12/01 00:59:48;;;;;;;7.75;2.33;;;;;;;9.86;100.00;99851.56;10544286;28;20550;-71
2021/12/01 01:04:48;;;;;;;2.47;2.30;;;;;;;9.90;100.00;99835.75;10545170;28;20036;-71
2021/12/01 01:09:49;;;;;;;7.60;2.47;;;;;;;9.96;100.00;99813.22;10544417;28;20036;-71
2021/12/01 01:20:10;;;;;;;19.40;3.65;;;;;;;9.97;100.00;99777.00;10543387;28;20516;-71
2021/12/01 01:25:11;;;;;;;9.75;3.25;;;;;;;9.97;100.00;99774.31;10542709;28;20048;-71
2021/12/01 01:30:11;;;;;;;15.52;4.70;;;;;;;10.02;100.00;99750.97;10527207;28;20563;-71
2021/12/01 01:35:13;;;;;;;14.70;3.58;;;;;;;10.12;100.00;99746.94;10542071;28;20127;-71
2021/12/01 01:40:13;;;;;;;13.93;3.97;;;;;;;10.11;100.00;99732.56;10542175;28;20035;-71
2021/12/01 01:45:14;;;;;;;10.63;3.38;;;;;;;10.10;100.00;99724.66;10542919;28;20524;-72
2021/12/01 01:50:57;;;;;;;21.63;3.47;;;;;;;10.14;100.00;99699.63;10527183;28;20036;-70
2021/12/01 01:55:39;;;;;;;19.60;2.35;;;;;;;10.13;100.00;99697.19;10541500;28;20450;-71
2021/12/01 02:00:47;;;;;;;8.20;2.55;;;;;;;10.12;100.00;99668.47;10542968;28;20040;-72
2021/12/01 02:05:49;;;;;;;7.90;2.25;;;;;;;10.09;100.00;99661.63;10540917;28;20063;-71
2021/12/01 02:10:50;;;;;;;7.03;1.90;;;;;;;10.08;100.00;99622.09;10542111;28;20036;-71
2021/12/01 02:15:51;;;;;;;1.98;1.48;;;;;;;10.15;100.00;99628.28;10523259;28;20086;-76
2021/12/01 02:20:58;;;;;;;4.75;2.13;;;;;;;10.13;100.00;99602.50;10546151;28;20044;-77
2021/12/01 02:25:58;;;;;;;10.13;1.95;;;;;;;10.14;100.00;99590.63;10543810;28;20093;-77
2021/12/01 02:30:59;;;;;;;1.95;1.75;;;;;;;10.21;100.00;99581.38;10544553;28;20116;-77
2021/12/01 02:35:59;;;;;;;1.85;1.27;;;;;;;10.18;100.00;99595.38;10539985;28;20043;-77
2021/12/01 02:41:00;;;;;;;2.03;1.45;;;;;;;10.11;100.00;99569.44;10542061;28;20142;-78
2021/12/01 02:46:00;;;;;;;4.28;2.10;;;;;;;9.95;100.00;99563.56;10541730;28;20043;-80
2021/12/01 02:51:03;;;;;;;1.77;1.67;;;;;;;9.72;100.00;99544.50;10539367;28;20138;-80
2021/12/01 02:56:04;;;;;;;3.25;1.23;;;;;;;9.63;100.00;99516.13;10542410;28;20035;-80
2021/12/01 03:01:06;;;;;;;1.40;1.30;;;;;;;9.51;100.00;99522.28;10539258;28;20035;-79
2021/12/01 03:06:07;;;;;;;1.65;1.55;;;;;;;9.45;100.00;99487.25;10540395;28;20039;-80
2021/12/01 03:11:07;;;;;;;1.92;1.83;;;;;;;9.42;100.00;99469.59;10539188;28;20043;-79
2021/12/01 03:16:08;;;;;;;2.65;2.33;;;;;;;9.31;100.00;99463.03;10540336;28;20463;-80
2021/12/01 03:21:08;;;;;;;3.70;2.55;;;;;;;9.16;100.00;99422.09;10540057;28;20043;-80
2021/12/01 03:26:09;;;;;;;2.88;2.63;;;;;;;9.11;100.00;99418.41;10539564;28;20028;-79
2021/12/01 03:31:09;;;;;;;3.92;2.83;;;;;;;9.02;100.00;99405.19;10540743;28;20522;-78
2021/12/01 03:36:09;;;;;;;8.38;4.07;;;;;;;8.95;100.00;99396.34;10548389;28;20035;-80
2021/12/01 03:41:10;;;;;;;3.22;3.03;;;;;;;8.81;100.00;99390.28;10546970;28;20111;-80
2021/12/01 03:46:10;;;;;;;6.97;4.00;;;;;;;8.73;100.00;99357.34;10549563;28;20417;-80
2021/12/01 03:51:11;;;;;;;3.35;3.15;;;;;;;8.65;100.00;99365.72;10548274;28;20051;-79
2021/12/01 03:56:11;;;;;;;3.65;3.35;;;;;;;8.68;100.00;99357.16;10547594;28;20031;-79
2021/12/01 04:01:11;;;;;;;6.55;5.05;;;;;;;8.59;100.00;99343.16;10547791;28;20387;-79
2021/12/01 04:06:12;;;;;;;4.47;4.07;;;;;;;8.56;100.00;99325.53;10548842;28;20475;-78
2021/12/01 04:11:12;;;;;;;4.65;3.97;;;;;;;8.56;100.00;99301.25;10548072;28;20506;-80
2021/12/01 04:16:13;;;;;;;8.60;3.95;;;;;;;8.53;100.00;99282.81;10550430;28;20036;-79
2021/12/01 04:21:13;;;;;;;4.78;4.47;;;;;;;8.48;100.00;99282.66;10549858;28;20124;-80
2021/12/01 04:26:18;;;;;;;4.75;4.35;;;;;;;8.45;100.00;99275.00;10549790;28;20550;-79
2021/12/01 04:31:19;;;;;;;5.40;4.70;;;;;;;8.48;100.00;99262.94;10548246;28;20032;-79
2021/12/01 04:36:20;;;;;;;4.00;3.70;;;;;;;8.50;100.00;99250.88;10529254;28;20424;-78
2021/12/01 04:41:22;;;;;;;4.22;3.83;;;;;;;8.49;100.00;99262.75;10545164;28;20036;-78
2021/12/01 04:46:23;;;;;;;4.68;4.22;;;;;;;8.53;100.00;99234.25;10545431;28;20043;-79
2021/12/01 04:51:23;;;;;;;3.92;3.63;;;;;;;8.54;100.00;99222.41;10545406;28;20500;-79
2021/12/01 04:56:23;;;;;;;5.68;3.65;;;;;;;8.54;100.00;99225.09;10543972;28;20036;-79
2021/12/01 05:01:24;;;;;;;9.75;3.63;;;;;;;8.55;100.00;99218.69;10542813;28;20043;-78
2021/12/01 05:06:24;;;;;;;4.82;4.07;;;;;;;8.58;100.00;99199.34;10541362;28;20055;-79
2021/12/01 05:11:25;;;;;;;4.70;3.38;;;;;;;8.61;100.00;99130.59;10543853;28;20142;-78
2021/12/01 05:16:25;;;;;;;2.97;2.78;;;;;;;8.63;100.00;99187.03;10544177;28;20031;-79
2021/12/01 05:21:25;;;;;;;3.10;2.17;;;;;;;8.61;100.00;99171.91;10542223;28;20047;-79
2021/12/01 05:26:26;;;;;;;2.40;2.20;;;;;;;8.60;100.00;99154.06;10542330;28;20387;-79
2021/12/01 05:31:27;;;;;;;2.90;2.33;;;;;;;8.59;100.00;99171.31;10543060;28;20032;-78
2021/12/01 05:36:27;;;;;;;2.00;1.90;;;;;;;8.67;100.00;99182.81;10542357;28;20032;-80
2021/12/01 05:41:27;;;;;;;1.60;1.50;;;;;;;8.66;100.00;99154.19;10543337;28;20036;-81
2021/12/01 05:46:28;;;;;;;2.42;2.22;;;;;;;8.67;100.00;99143.16;10543881;28;20032;-81
2021/12/01 05:51:28;;;;;;;12.80;3.37;;;;;;;8.76;100.00;99146.38;10499838;28;1230289;-82
2021/12/01 05:56:30;;;;;;;6.30;2.95;;;;;;;8.79;100.00;99132.44;10542495;28;20394;-79
2021/12/01 06:01:30;;;;;;;3.25;2.95;;;;;;;8.74;100.00;99132.28;10543471;28;20081;-79
2021/12/01 06:06:31;;;;;;;3.92;3.00;;;;;;;8.78;100.00;99118.13;10544472;28;20055;-79
2021/12/01 06:11:31;;;;;;;3.75;3.33;;;;;;;8.81;100.00;99127.63;10543521;28;20043;-79
2021/12/01 06:16:32;;;;;;;9.57;4.93;;;;;;;8.77;100.00;99121.03;10543195;28;20059;-80
2021/12/01 06:21:32;;;;;;;6.00;3.47;;;;;;;8.76;100.00;99114.00;10544358;28;20036;-80
2021/12/01 06:26:32;;;;;;;6.03;2.92;;;;;;;8.73;100.00;99103.66;10543686;28;20036;-79
2021/12/01 06:31:33;;;;;;;9.98;3.95;;;;;;;8.75;100.00;99101.56;10541394;28;20442;-80
2021/12/01 06:36:33;;;;;;;6.05;2.72;;;;;;;8.75;100.00;99094.28;10540602;28;20035;-80
2021/12/01 06:41:34;;;;;;;5.70;3.90;;;;;;;8.79;100.00;99097.34;10542621;28;20372;-80
2021/12/01 06:46:34;;;;;;;7.70;3.63;;;;;;;8.79;100.00;99075.75;10542684;28;20036;-80
2021/12/01 06:51:35;;;;;;;5.85;3.58;;;;;;;8.79;100.00;99071.19;10540858;28;20471;-79
2021/12/01 06:56:35;;;;;;;10.82;3.80;;;;;;;8.76;100.00;99071.63;10541198;28;20028;-80
2021/12/01 07:01:35;;;;;;;2.88;2.67;;;;;;;8.83;100.00;99060.72;10541231;28;20032;-80
2021/12/01 07:06:36;;;;;;;11.55;3.75;;;;;;;8.88;100.00;99044.69;10541354;28;20153;-78
2021/12/01 07:11:36;;;;;;;8.63;3.20;;;;;;;8.84;100.00;99041.63;10539268;28;20028;-79
2021/12/01 07:16:36;;;;;;;17.85;3.70;;;;;;;8.90;100.00;99031.75;10540428;28;20425;-79
2021/12/01 07:21:37;;;;;;;8.20;3.58;;;;;;;8.96;100.00;99038.09;10540390;28;20085;-79
2021/12/01 07:26:38;;;;;;;9.70;3.53;;;;;;;8.96;100.00;99052.41;10540412;28;20464;-80
2021/12/01 07:31:38;;;;;;;22.17;5.25;;;;;;;8.95;100.00;99048.09;10539982;28;20039;-79
2021/12/01 07:36:38;;;;;;;12.27;5.82;;;;;;;8.81;100.00;99057.47;10540322;28;20032;-79
2021/12/01 07:41:39;;;;;;;8.32;3.75;;;;;;;8.78;100.00;99056.03;10540769;28;20047;-79
2021/12/01 07:46:39;;;;;;;12.93;3.95;;;;;;;8.72;100.00;99069.63;10539289;28;20040;-80
2021/12/01 07:51:39;;;;;;;17.05;3.35;;;;;;;8.35;99.74;99072.38;10539537;28;20044;-80
2021/12/01 07:56:40;;;;;;;7.05;2.88;;;;;;;8.15;100.00;99076.16;10539716;28;20028;-80
2021/12/01 08:01:42;;;;;;;9.38;2.63;;;;;;;8.08;100.00;99069.22;10538219;28;20040;-80
2021/12/01 08:06:45;;;;;;;3.97;2.58;;;;;;;8.05;100.00;99083.16;10537928;28;20486;-80
2021/12/01 08:11:46;;;;;;;5.47;2.42;;;;;;;8.04;100.00;99095.81;10539272;28;20371;-81
2021/12/01 08:16:47;;;;;;;8.93;3.42;;;;;;;8.09;100.00;99093.25;10539757;28;20024;-81
2021/12/01 08:21:49;;;;;;;18.75;5.43;;;;;;;8.11;100.00;99068.78;10546068;28;20383;-80
2021/12/01 08:26:50;;;;;;;12.35;3.85;;;;;;;8.12;100.00;99073.09;10546699;28;20383;-79
2021/12/01 08:31:50;;;;;;;4.40;1.90;;;;;;;8.24;100.00;99086.66;10544751;28;20039;-80
2021/12/01 08:36:51;;;;;;;6.55;1.98;;;;;;;8.30;100.00;99089.28;10544945;28;20112;-78
2021/12/01 08:41:52;;;;;;;5.55;2.75;;;;;;;8.39;100.00;99105.97;10545527;28;20475;-80
2021/12/01 08:46:52;;;;;;;14.00;2.65;;;;;;;8.47;100.00;99124.56;10544983;28;20043;-79
2021/12/01 08:51:52;;;;;;;15.55;3.97;;;;;;;8.38;100.00;99140.22;10545464;28;20063;-80
2021/12/01 08:56:53;;;;;;;14.43;2.58;;;;;;;8.31;100.00;99142.16;10544281;28;20488;-80
2021/12/01 09:01:53;;;;;;;10.23;2.72;;;;;;;8.29;100.00;99144.22;10544455;28;20064;-79
2021/12/01 09:06:54;;;;;;;7.55;3.42;;;;;;;8.31;100.00;99149.41;10543524;28;20067;-79
2021/12/01 09:11:54;;;;;;;3.00;2.20;;;;;;;8.19;100.00;99162.00;10543163;28;20028;-80
2021/12/01 09:16:55;;;;;;;6.22;2.85;;;;;;;7.98;100.00;99177.56;10543277;28;20032;-81
2021/12/01 09:21:55;;;;;;;8.30;3.10;;;;;;;7.99;100.00;99181.91;10543536;28;20036;-80
2021/12/01 09:26:56;;;;;;;9.00;3.33;;;;;;;7.88;100.00;99177.22;10543677;28;20364;-81
2021/12/01 09:31:57;;;;;;;5.32;2.85;;;;;;;7.89;100.00;99187.00;10542970;28;20460;-81
2021/12/01 09:36:58;;;;;;;5.57;2.75;;;;;;;7.92;100.00;99190.06;10524874;28;20039;-79
2021/12/01 09:41:59;;;;;;;13.80;3.58;;;;;;;8.11;100.00;99174.72;10542493;28;20036;-79
2021/12/01 09:47:00;;;;;;;6.13;3.03;;;;;;;8.14;100.00;99181.56;10541835;28;20020;-79
2021/12/01 09:52:00;;;;;;;26.58;4.35;;;;;;;8.12;100.00;99197.94;10542994;28;20048;-81
2021/12/01 09:57:01;;;;;;;8.88;2.35;;;;;;;8.09;100.00;99195.69;10525181;28;20479;-81
2021/12/01 10:02:02;;;;;;;8.32;3.03;;;;;;;8.01;100.00;99196.00;10541390;28;20046;-81
2021/12/01 10:07:22;;;;;;;8.48;2.97;;;;;;;7.99;100.00;99192.69;10543735;28;20040;-81
2021/12/01 10:12:25;;;;;;;9.50;3.03;;;;;;;7.99;100.00;99189.19;10543546;28;20024;-81
2021/12/01 10:17:33;;;;;;;15.90;5.53;;;;;;;8.17;100.00;99183.81;10524929;28;20480;-80
2021/12/01 10:22:34;;;;;;;12.10;3.20;;;;;;;8.33;100.00;99172.41;10542706;28;20035;-79
2021/12/01 10:27:38;;;;;;;10.13;3.70;;;;;;;8.45;100.00;99183.28;10544335;28;20028;-79
2021/12/01 10:32:38;;;;;;;2.17;1.98;;;;;;;8.45;100.00;99177.06;10541250;28;20097;-79
2021/12/01 10:37:38;;;;;;;8.10;2.58;;;;;;;8.45;100.00;99185.97;10541604;28;20085;-78
2021/12/01 10:42:52;;;;;;;10.35;4.05;;;;;;;8.47;100.00;99181.19;10526039;28;20035;-79
2021/12/01 10:47:53;;;;;;;2.25;1.92;;;;;;;8.50;99.23;99186.16;10547032;28;20032;-79
2021/12/01 10:53:07;;;;;;;3.40;2.45;;;;;;;8.46;98.77;99174.16;10545928;28;20079;-78
2021/12/01 10:58:07;;;;;;;3.83;2.30;;;;;;;8.47;99.18;99177.69;10540810;28;20117;-79
2021/12/01 11:03:12;;;;;;;5.85;3.35;;;;;;;8.44;99.24;99176.25;10539855;28;20125;-79
2021/12/01 11:08:13;;;;;;;13.75;3.20;;;;;;;8.47;98.97;99191.16;10541216;28;20058;-79
2021/12/01 11:13:14;;;;;;;2.63;2.42;;;;;;;8.44;98.71;99191.63;10539940;28;20081;-78
2021/12/01 11:18:22;;;;;;;5.90;2.08;;;;;;;8.40;98.34;99191.25;10540050;28;20024;-78
2021/12/01 11:23:24;;;;;;;14.13;2.85;;;;;;;8.42;98.30;99186.44;10539974;28;20372;-79
2021/12/01 11:28:26;;;;;;;9.30;2.65;;;;;;;8.56;99.81;99184.41;10540345;28;20067;-78
2021/12/01 11:33:26;;;;;;;9.15;4.03;;;;;;;8.60;99.91;99194.53;10539906;28;20043;-79
2021/12/01 11:38:27;;;;;;;7.45;3.13;;;;;;;8.55;99.64;99189.00;10522437;28;20039;-77
2021/12/01 11:43:29;;;;;;;10.20;2.60;;;;;;;8.63;100.00;99187.84;10539804;28;20060;-78
2021/12/01 11:48:31;;;;;;;3.35;2.45;;;;;;;8.65;99.85;99184.91;10522355;28;20089;-78
2021/12/01 11:53:37;;;;;;;1.95;1.75;;;;;;;8.62;98.87;99183.53;10540190;28;20052;-78
2021/12/01 11:58:41;;;;;;;10.82;3.55;;;;;;;8.50;98.40;99194.25;10547835;28;20360;-78
2021/12/01 12:03:41;;;;;;;5.07;2.70;;;;;;;8.44;97.12;99176.25;10549244;28;20036;-78
2021/12/01 12:08:53;;;;;;;3.78;1.85;;;;;;;8.56;98.42;99168.22;10548233;28;20064;-77
2021/12/01 12:13:59;;;;;;;8.75;3.03;;;;;;;8.63;99.09;99178.94;10548529;28;20032;-76
2021/12/01 12:19:00;;;;;;;11.05;3.05;;;;;;;8.82;100.00;99178.69;10548645;28;20032;-78
2021/12/01 12:24:09;;;;;;;11.90;3.40;;;;;;;8.90;99.76;99177.53;10529036;28;20119;-78
2021/12/01 12:29:15;;;;;;;17.58;2.40;;;;;;;8.92;99.69;99191.63;10547043;28;20028;-78
2021/12/01 12:34:20;;;;;;;10.50;3.42;;;;;;;8.89;98.29;99178.59;10545072;28;20035;-78
2021/12/01 12:39:28;;;;;;;7.03;3.38;;;;;;;8.98;100.00;99185.31;10545687;28;20089;-78
2021/12/01 12:44:32;;;;;;;16.08;2.70;;;;;;;9.00;99.25;99179.69;10544998;28;20077;-78
2021/12/01 12:49:55;;;;;;;4.68;2.03;;;;;;;9.06;99.52;99193.09;10546649;28;20115;-79
2021/12/01 12:55:23;;;;;;;2.78;2.50;;;;;;;8.97;98.96;99186.38;10546841;28;20135;-78
2021/12/01 13:00:34;;;;;;;5.90;2.72;;;;;;;8.92;98.50;99188.09;10545824;28;20451;-78
2021/12/01 13:05:36;;;;;;;6.68;2.35;;;;;;;8.85;98.36;99180.09;10545254;28;20039;-78
2021/12/01 13:10:39;;;;;;;6.72;3.30;;;;;;;8.87;99.54;99188.81;10545626;28;20387;-78
2021/12/01 13:15:44;;;;;;;13.35;3.53;;;;;;;8.76;97.76;99190.38;10542749;28;20028;-77
2021/12/01 13:20:56;;;;;;;6.72;4.07;;;;;;;8.79;99.73;99200.72;10544398;28;20032;-78
2021/12/01 13:25:58;;;;;;;7.57;2.97;;;;;;;8.77;99.51;99194.72;10545805;28;20379;-79
2021/12/01 13:31:10;;;;;;;4.03;2.65;;;;;;;8.79;99.25;99205.31;10544175;28;20039;-78
2021/12/01 13:36:15;;;;;;;8.98;2.80;;;;;;;8.83;99.76;99193.00;10544900;28;20341;-79
2021/12/01 13:41:16;;;;;;;21.15;3.03;;;;;;;8.83;99.45;99201.09;10543468;28;20503;-78
2021/12/01 13:46:17;;;;;;;10.60;3.58;;;;;;;8.79;98.53;99216.91;10510081;28;20116;-78
2021/12/01 13:51:17;;;;;;;12.98;2.33;;;;;;;8.88;100.00;99203.94;10543257;28;20060;-78
2021/12/01 13:56:22;;;;;;;12.25;4.18;;;;;;;8.81;98.21;99208.59;10543209;28;20059;-79
2021/12/01 14:01:22;;;;;;;27.48;4.03;;;;;;;8.58;97.76;99229.03;10541382;28;20036;-78
2021/12/01 14:06:27;;;;;;;19.30;4.35;;;;;;;8.27;98.36;99235.34;10544103;28;20111;-79
2021/12/01 14:11:32;;;;;;;14.85;2.90;;;;;;;8.07;98.73;99238.25;10542987;28;20399;-78
2021/12/01 14:16:32;;;;;;;4.85;2.58;;;;;;;7.99;99.09;99240.38;10541572;28;20067;-79
2021/12/01 14:21:34;;;;;;;13.05;4.00;;;;;;;7.89;99.27;99259.75;10523657;28;20032;-78
2021/12/01 14:26:36;;;;;;;7.07;2.50;;;;;;;7.62;99.10;99275.28;10540771;28;20479;-80
2021/12/01 14:31:36;;;;;;;19.70;3.13;;;;;;;7.39;98.53;99271.28;10507097;28;20023;-80
2021/12/01 14:36:40;;;;;;;13.82;2.85;;;;;;;7.31;99.14;99268.88;10540342;28;20155;-80
2021/12/01 14:41:41;;;;;;;11.02;3.70;;;;;;;7.38;99.35;99279.59;10540938;28;20376;-80
2021/12/01 14:46:42;;;;;;;14.70;1.98;;;;;;;7.30;99.36;99285.22;10539850;28;20043;-80
2021/12/01 14:51:47;;;;;;;7.47;3.00;;;;;;;7.35;99.69;99291.63;10540493;28;20424;-80
2021/12/01 14:57:08;;;;;;;11.77;4.22;;;;;;;7.44;100.00;99295.72;10542352;28;20036;-80
2021/12/01 15:02:22;;;;;;;12.43;3.13;;;;;;;7.41;100.00;99311.50;10543000;28;20028;-82
2021/12/01 15:07:22;;;;;;;9.75;2.67;;;;;;;7.15;98.85;99315.16;10541632;28;20442;-82
2021/12/01 15:12:24;;;;;;;2.55;1.85;;;;;;;7.04;98.87;99322.00;10540917;28;20068;-82
2021/12/01 15:17:25;;;;;;;12.60;3.30;;;;;;;7.03;99.02;99324.94;10539315;28;20028;-82
2021/12/01 15:22:25;;;;;;;13.57;3.88;;;;;;;7.04;98.75;99332.78;10539893;28;20368;-81
2021/12/01 15:27:25;;;;;;;29.70;5.45;;;;;;;6.97;98.10;99338.19;10543261;28;20073;-81
2021/12/01 15:32:27;;;;;;;11.68;3.10;;;;;;;7.07;98.53;99353.88;10548921;28;20032;-82
2021/12/01 15:37:27;;;;;;;11.63;3.58;;;;;;;7.05;98.28;99372.13;10547742;28;20032;-82
2021/12/01 15:42:28;;;;;;;6.80;2.08;;;;;;;7.04;98.10;99378.53;10549109;28;20422;-81
2021/12/01 15:47:28;;;;;;;7.30;2.30;;;;;;;7.03;97.77;99384.97;10549266;28;20032;-81
2021/12/01 15:52:29;;;;;;;8.13;2.50;;;;;;;6.98;97.20;99392.81;10548643;28;20076;-81
2021/12/01 15:57:30;;;;;;;6.40;2.50;;;;;;;6.89;96.35;99404.84;10551004;28;20443;-82
2021/12/01 16:02:30;;;;;;;11.60;3.08;;;;;;;6.75;94.96;99406.75;10513457;28;20044;-81
2021/12/01 16:07:31;;;;;;;8.38;3.20;;;;;;;6.80;95.64;99430.34;10546381;28;20463;-81
2021/12/01 16:12:31;;;;;;;9.25;2.28;;;;;;;6.84;97.00;99437.78;10548690;28;20036;-81
2021/12/01 16:17:36;;;;;;;6.85;2.42;;;;;;;6.85;96.36;99449.38;10547417;28;20039;-80
2021/12/01 16:22:36;;;;;;;6.10;2.92;;;;;;;6.67;95.77;99448.16;10546817;28;20040;-80
2021/12/01 16:27:38;;;;;;;16.95;3.83;;;;;;;6.66;95.93;99462.63;10529733;28;20062;-80
2021/12/01 16:32:40;;;;;;;10.23;2.70;;;;;;;6.67;96.26;99477.75;10545563;28;20036;-80
2021/12/01 16:37:40;;;;;;;12.35;2.35;;;;;;;6.64;97.46;99486.22;10544941;28;20533;-80
2021/12/01 16:42:41;;;;;;;2.55;1.40;;;;;;;6.48;96.72;99484.78;10545914;28;20094;-81
2021/12/01 16:47:41;;;;;;;3.42;1.55;;;;;;;6.28;96.23;99490.09;10546914;28;20035;-80
2021/12/01 16:52:42;;;;;;;7.57;2.78;;;;;;;6.23;97.03;99503.34;10545523;28;20145;-81
2021/12/01 16:57:43;;;;;;;10.23;3.13;;;;;;;6.15;96.62;99508.88;10546222;28;20086;-81
2021/12/01 17:02:44;;;;;;;7.43;3.10;;;;;;;6.07;95.39;99517.16;10545709;28;20132;-81
2021/12/01 17:12:48;;;;;;;8.68;3.42;;;;;;;6.09;95.56;99523.13;10546056;28;20044;-82
2021/12/01 17:17:48;;;;;;;2.95;1.95;;;;;;;6.22;96.77;99533.94;10544726;28;20035;-81
2021/12/01 17:22:48;;;;;;;7.13;3.30;;;;;;;6.40;98.07;99565.63;10544121;28;20051;-81
2021/12/01 17:27:49;;;;;;;7.25;2.88;;;;;;;6.50;98.28;99566.06;10543634;28;20131;-80
2021/12/01 17:32:51;;;;;;;14.27;2.70;;;;;;;6.45;97.97;99579.28;10545250;28;20081;-80
2021/12/01 17:37:51;;;;;;;13.25;3.10;;;;;;;6.45;97.62;99579.28;10545158;28;20063;-80
2021/12/01 17:42:52;;;;;;;5.80;2.40;;;;;;;6.24;96.22;99577.56;10543422;28;20064;-81
2021/12/01 17:47:52;;;;;;;5.30;3.10;;;;;;;6.05;94.90;99587.22;10543366;28;20120;-81
2021/12/01 17:52:53;;;;;;;7.13;3.20;;;;;;;6.00;94.78;99596.94;10543304;28;20051;-81
2021/12/01 17:57:53;;;;;;;6.00;2.55;;;;;;;5.89;94.25;99597.44;10543963;28;20024;-81
2021/12/01 18:02:54;;;;;;;6.30;2.20;;;;;;;5.94;94.51;99606.59;10543721;28;20467;-80
2021/12/01 18:07:54;;;;;;;8.43;3.42;;;;;;;5.99;95.22;99620.25;10526490;28;20043;-81
2021/12/01 18:12:54;;;;;;;7.65;2.95;;;;;;;6.07;95.07;99621.97;10549380;28;20043;-79
2021/12/01 18:17:55;;;;;;;4.45;2.08;;;;;;;6.17;95.07;99637.72;10543805;28;20032;-80
2021/12/01 18:22:55;;;;;;;14.93;4.00;;;;;;;6.08;94.50;99638.91;10543443;28;20174;-79
2021/12/01 18:27:56;;;;;;;1.52;1.42;;;;;;;6.02;94.22;99646.72;10542846;28;20036;-80
2021/12/01 18:32:56;;;;;;;5.43;2.63;;;;;;;6.01;94.18;99665.75;10542382;28;20066;-79
2021/12/01 18:37:57;;;;;;;6.72;2.13;;;;;;;6.00;93.97;99677.53;10541310;28;20028;-80
2021/12/01 18:42:57;;;;;;;12.82;3.10;;;;;;;5.92;93.99;99683.03;10542331;28;20051;-79
2021/12/01 18:47:59;;;;;;;15.02;3.85;;;;;;;5.90;94.37;99707.38;10541541;28;20032;-78
2021/12/01 18:53:00;;;;;;;13.80;2.50;;;;;;;6.05;95.44;99704.63;10542960;28;20060;-80
2021/12/01 18:58:00;;;;;;;15.18;4.22;;;;;;;6.19;96.44;99717.13;10541397;28;20379;-79
2021/12/01 19:03:00;;;;;;;4.10;2.25;;;;;;;6.28;96.02;99718.59;10541168;28;20074;-79
2021/12/01 19:08:01;;;;;;;5.13;2.17;;;;;;;6.17;95.17;99734.47;10543168;28;20044;-79
2021/12/01 19:13:02;;;;;;;9.73;2.92;;;;;;;6.02;94.13;99726.53;10543901;28;20040;-79
2021/12/01 19:18:03;;;;;;;16.98;3.50;;;;;;;5.82;93.33;99732.56;10549176;28;20111;-79
2021/12/01 19:23:04;;;;;;;5.75;2.40;;;;;;;5.72;93.08;99748.19;10549255;28;20032;-80
2021/12/01 19:28:05;;;;;;;5.93;2.42;;;;;;;5.71;93.04;99751.91;10546521;28;20387;-79
2021/12/01 19:33:05;;;;;;;12.00;2.78;;;;;;;5.64;93.88;99761.75;10546595;28;20049;-79
2021/12/01 19:38:05;;;;;;;8.50;3.03;;;;;;;5.70;94.19;99770.88;10544756;28;20115;-81
2021/12/01 19:43:06;;;;;;;7.25;2.92;;;;;;;5.68;94.29;99771.09;10544033;28;20028;-82
2021/12/01 19:48:07;;;;;;;4.32;2.60;;;;;;;5.97;97.26;99788.09;10543326;28;20083;-80
2021/12/01 19:53:07;;;;;;;10.45;3.40;;;;;;;6.12;97.47;99788.81;10539909;28;20572;-79
2021/12/01 19:58:08;;;;;;;3.45;2.63;;;;;;;5.96;95.47;99776.50;10540643;28;20064;-83
2021/12/01 20:03:09;;;;;;;14.02;2.90;;;;;;;5.90;94.83;99790.69;10544387;28;20039;-83
2021/12/01 20:08:09;;;;;;;17.65;3.63;;;;;;;5.82;94.25;99790.84;10551385;28;20056;-84
2021/12/01 20:13:10;;;;;;;8.55;3.65;;;;;;;5.92;96.19;99796.69;10558329;28;20028;-86
2021/12/01 20:18:12;;;;;;;10.65;4.05;;;;;;;6.02;96.56;99802.59;10551117;28;20059;-84
2021/12/01 20:23:12;;;;;;;7.90;1.85;;;;;;;6.11;97.48;99805.97;10551210;28;20529;-86
2021/12/01 20:28:13;;;;;;;6.30;2.83;;;;;;;6.19;97.69;99813.06;10553166;28;20036;-82
2021/12/01 20:33:14;;;;;;;6.97;2.50;;;;;;;6.21;97.20;99817.22;10553346;28;20036;-80
2021/12/01 20:38:15;;;;;;;11.57;3.08;;;;;;;6.16;96.03;99838.50;10547190;28;20043;-82
2021/12/01 20:43:15;;;;;;;11.65;3.78;;;;;;;6.04;95.27;99834.66;10546017;28;20468;-84
2021/12/01 20:58:51;;;;;;;9.55;4.15;;;;;;;6.35;98.42;99868.38;10548089;28;20039;-83
2021/12/01 21:03:54;;;;;;;15.15;3.10;;;;;;;6.28;97.41;99879.09;10547354;28;20036;-85
2021/12/01 21:08:56;;;;;;;4.82;2.22;;;;;;;6.03;96.08;99881.34;10547156;28;20397;-74
2021/12/01 21:14:03;;;;;;;7.90;2.58;;;;;;;5.89;95.79;99884.94;10547139;28;20036;-81
2021/12/01 21:19:04;;;;;;;8.07;2.45;;;;;;;5.79;95.69;99888.75;10549249;28;20032;-81
2021/12/01 21:24:05;;;;;;;8.02;1.70;;;;;;;5.62;94.54;99894.59;10545122;28;20388;-81
2021/12/01 21:29:07;;;;;;;11.25;2.75;;;;;;;5.63;95.61;99905.13;10545366;28;20119;-81
2021/12/01 21:34:08;;;;;;;7.40;2.85;;;;;;;5.70;97.65;99926.69;10512224;28;20067;-79
2021/12/01 21:39:08;;;;;;;11.07;3.22;;;;;;;5.61;97.00;99939.38;10527046;28;20122;-81
2021/12/01 21:44:09;;;;;;;11.80;1.67;;;;;;;5.43;96.82;99930.94;10526339;28;20150;-82
2021/12/01 21:49:09;;;;;;;10.85;6.72;;;;;;;5.28;97.20;99931.75;10545281;28;20039;-81
2021/12/01 21:54:10;;;;;;;7.45;2.35;;;;;;;5.07;96.04;99927.16;10542451;28;20056;-82
2021/12/01 21:59:10;;;;;;;7.75;3.13;;;;;;;4.80;94.48;99922.44;10525656;28;20382;-82
2021/12/01 22:04:11;;;;;;;6.13;2.45;;;;;;;4.63;94.74;99913.72;10542386;28;20041;-81
2021/12/01 22:09:11;;;;;;;11.32;2.65;;;;;;;4.73;96.12;99929.56;10542050;28;20420;-81
2021/12/01 22:14:11;;;;;;;11.48;2.55;;;;;;;4.91;97.64;99932.69;10542480;28;20062;-81
2021/12/01 22:19:12;;;;;;;9.20;2.72;;;;;;;4.85;96.39;99926.25;10542020;28;20032;-81
2021/12/01 22:24:16;;;;;;;9.23;2.53;;;;;;;4.87;96.41;99924.19;10548007;28;20134;-81
2021/12/01 22:29:16;;;;;;;12.07;2.08;;;;;;;5.03;97.59;99933.06;10537618;28;20032;-82
2021/12/01 22:34:17;;;;;;;6.82;2.22;;;;;;;5.14;98.22;99948.72;10542869;28;20483;-81
2021/12/01 22:39:17;;;;;;;6.88;1.95;;;;;;;5.21;98.19;99944.28;10523852;28;20028;-81
2021/12/01 22:44:18;;;;;;;3.15;1.95;;;;;;;5.22;97.88;99935.19;10541647;28;20543;-81
2021/12/01 22:49:18;;;;;;;1.25;1.15;;;;;;;5.12;96.82;99938.16;10523930;28;20032;-82
2021/12/01 22:54:18;;;;;;;4.20;2.30;;;;;;;4.94;95.77;99944.91;10540579;28;20059;-82
2021/12/01 22:59:24;;;;;;;3.55;1.67;;;;;;;4.99;97.32;99956.75;10542838;28;20531;-81
2021/12/01 23:04:25;;;;;;;7.10;2.97;;;;;;;5.03;97.39;99954.53;10525628;28;20036;-82
2021/12/01 23:09:25;;;;;;;10.38;3.42;;;;;;;5.13;97.95;99950.53;10541055;28;20043;-81
2021/12/01 23:14:25;;;;;;;4.95;2.75;;;;;;;5.19;98.08;99954.34;10541847;28;20028;-81
2021/12/01 23:19:26;;;;;;;6.70;2.85;;;;;;;5.18;97.64;99958.06;10542149;28;20039;-81
2021/12/01 23:29:46;;;;;;;8.10;3.20;;;;;;;5.23;97.12;99955.66;10541394;28;20456;-80
2021/12/01 23:34:46;;;;;;;8.48;3.10;;;;;;;5.35;97.00;99961.38;10540675;28;20037;-81
2021/12/01 23:39:47;;;;;;;11.05;2.63;;;;;;;5.40;97.06;99963.53;10540166;28;20459;-81
2021/12/01 23:44:50;;;;;;;10.38;1.88;;;;;;;5.31;96.05;99960.09;10540923;28;20101;-82
2021/12/01 23:55:10;;;;;;;4.82;2.50;;;;;;;5.17;96.70;99961.78;10549520;28;20416;-81
